createdAt,value
2023-02-18T00:00:44.786Z,51.20
2023-02-18T00:03:26.612Z,50.70
2023-02-18T00:05:59.449Z,54.00
2023-02-18T00:08:32.694Z,45.80
2023-02-18T00:11:07.111Z,47.70
2023-02-18T00:13:40.220Z,51.40
2023-02-18T00:16:15.351Z,52.10
2023-02-18T00:18:48.457Z,46.60
2023-02-18T00:21:22.388Z,47.00
2023-02-18T00:23:56.097Z,45.80
2023-02-18T00:26:30.088Z,46.80
2023-02-18T00:29:03.322Z,46.30
2023-02-18T00:31:38.978Z,39.20
2023-02-18T00:34:14.108Z,37.60
2023-02-18T00:36:47.186Z,40.00
2023-02-18T00:39:21.081Z,42.20
2023-02-18T00:41:53.990Z,44.60
2023-02-18T00:44:27.025Z,43.10
2023-02-18T00:47:00.785Z,42.70
2023-02-18T00:49:34.058Z,43.20
2023-02-18T00:52:09.905Z,41.00
2023-02-18T00:54:42.889Z,41.40
2023-02-18T00:57:16.466Z,41.50
2023-02-18T00:59:49.659Z,40.60
2023-02-18T01:02:22.540Z,40.90
2023-02-18T01:04:55.929Z,40.40
2023-02-18T01:07:29.080Z,46.70
2023-02-18T01:10:02.220Z,37.80
2023-02-18T01:12:35.220Z,42.60
2023-02-18T01:15:09.489Z,43.30
2023-02-18T01:17:42.784Z,40.30
2023-02-18T01:20:17.418Z,41.20
2023-02-18T01:22:50.227Z,43.10
2023-02-18T01:25:23.514Z,46.50
2023-02-18T01:27:56.849Z,43.10
2023-02-18T01:30:29.987Z,46.20
2023-02-18T01:33:03.302Z,42.10
2023-02-18T01:35:39.172Z,47.40
2023-02-18T01:38:12.496Z,44.70
2023-02-18T01:40:52.181Z,44.60
2023-02-18T01:43:25.726Z,45.20
2023-02-18T01:46:19.778Z,45.40
2023-02-18T01:49:00.596Z,43.90
2023-02-18T01:51:41.380Z,40.30
2023-02-18T01:54:25.700Z,42.00
2023-02-18T01:57:05.213Z,44.70
2023-02-18T01:59:51.673Z,43.60
2023-02-18T02:02:28.406Z,43.50
2023-02-18T02:05:01.828Z,42.90
2023-02-18T02:07:35.270Z,42.90
2023-02-18T02:10:08.885Z,43.30
2023-02-18T02:12:53.293Z,41.90
2023-02-18T02:15:35.826Z,42.70
2023-02-18T02:21:01.865Z,41.00
2023-02-18T02:24:10.012Z,40.70
2023-02-18T02:27:21.881Z,43.70
2023-02-18T02:30:28.052Z,35.90
2023-02-18T02:33:03.502Z,38.40
2023-02-18T02:35:51.319Z,38.20
2023-02-18T02:38:42.818Z,38.30
2023-02-18T02:41:33.336Z,40.60
2023-02-18T02:44:32.969Z,36.60
2023-02-18T02:47:28.083Z,35.50
2023-02-18T02:50:36.591Z,38.00
2023-02-18T02:53:21.451Z,33.90
2023-02-18T02:55:56.620Z,38.70
2023-02-18T02:58:30.651Z,32.50
2023-02-18T03:01:37.959Z,33.80
2023-02-18T03:04:26.050Z,31.00
2023-02-18T03:07:11.322Z,34.00
2023-02-18T03:10:01.927Z,30.80
2023-02-18T03:13:04.991Z,30.30
2023-02-18T03:15:58.306Z,32.20
2023-02-18T03:18:42.826Z,31.10
2023-02-18T03:21:25.399Z,32.60
2023-02-18T03:26:33.393Z,36.10
2023-02-18T03:29:11.451Z,31.00
2023-02-18T03:31:49.268Z,35.30
2023-02-18T03:34:31.807Z,33.20
2023-02-18T03:39:39.523Z,34.70
2023-02-18T03:42:12.875Z,36.10
2023-02-18T03:44:45.771Z,32.10
2023-02-18T03:47:18.534Z,32.80
2023-02-18T03:49:51.423Z,33.00
2023-02-18T03:52:24.266Z,33.50
2023-02-18T03:54:57.069Z,33.60
2023-02-18T03:57:30.003Z,31.70
2023-02-18T04:00:02.961Z,29.90
2023-02-18T04:02:47.128Z,31.60
2023-02-18T04:05:20.583Z,33.50
2023-02-18T04:07:53.588Z,32.30
2023-02-18T04:10:26.469Z,30.90
2023-02-18T04:12:59.566Z,29.70
2023-02-18T04:15:33.081Z,31.80
2023-02-18T04:18:06.189Z,28.30
2023-02-18T04:20:39.441Z,30.60
2023-02-18T04:23:12.607Z,30.40
2023-02-18T04:25:45.652Z,30.60
2023-02-18T04:28:19.232Z,16.00
2023-02-18T04:30:52.247Z,19.70
2023-02-18T04:33:25.855Z,22.60
2023-02-18T04:35:59.232Z,21.40
2023-02-18T04:38:32.214Z,26.30
2023-02-18T04:41:05.338Z,29.20
2023-02-18T04:43:38.397Z,30.10
2023-02-18T04:46:11.628Z,24.40
2023-02-18T04:48:44.825Z,29.60
2023-02-18T04:51:17.855Z,31.50
2023-02-18T04:53:50.679Z,33.50
2023-02-18T04:56:23.664Z,31.70
2023-02-18T04:58:56.707Z,30.60
2023-02-18T05:01:29.818Z,30.50
2023-02-18T05:04:03.076Z,28.90
2023-02-18T05:06:35.969Z,27.40
2023-02-18T05:09:09.536Z,32.70
2023-02-18T05:11:42.528Z,29.60
2023-02-18T05:14:15.782Z,32.80
2023-02-18T05:16:48.699Z,32.60
2023-02-18T05:19:21.636Z,29.90
2023-02-18T05:21:54.732Z,32.10
2023-02-18T05:24:28.205Z,29.70
2023-02-18T05:27:01.457Z,34.80
2023-02-18T05:29:34.740Z,31.70
2023-02-18T05:32:08.211Z,32.70
2023-02-18T05:34:41.066Z,36.60
2023-02-18T05:37:14.845Z,38.20
2023-02-18T05:39:48.853Z,33.50
2023-02-18T05:42:22.036Z,35.70
2023-02-18T05:44:54.879Z,32.20
2023-02-18T05:47:28.514Z,30.10
2023-02-18T05:50:01.350Z,34.60
2023-02-18T05:52:34.084Z,36.50
2023-02-18T05:55:07.431Z,36.10
2023-02-18T05:57:40.501Z,39.30
2023-02-18T06:00:14.237Z,36.20
2023-02-18T06:02:47.496Z,40.60
2023-02-18T06:05:20.596Z,38.70
2023-02-18T06:07:55.795Z,43.20
2023-02-18T06:10:29.821Z,36.70
2023-02-18T06:13:04.759Z,37.60
2023-02-18T06:15:38.101Z,33.50
2023-02-18T06:18:11.062Z,35.00
2023-02-18T06:20:44.413Z,31.60
2023-02-18T06:23:17.677Z,26.90
2023-02-18T06:25:52.145Z,28.50
2023-02-18T06:28:25.134Z,27.10
2023-02-18T06:30:58.354Z,31.30
2023-02-18T06:33:31.360Z,29.00
2023-02-18T06:36:09.541Z,32.60
2023-02-18T06:38:44.256Z,33.50
2023-02-18T06:41:17.888Z,31.50
2023-02-18T06:43:51.022Z,34.60
2023-02-18T06:46:23.994Z,36.80
2023-02-18T06:48:57.017Z,36.50
2023-02-18T06:51:30.153Z,34.40
2023-02-18T06:54:03.246Z,37.20
2023-02-18T06:56:36.576Z,46.70
2023-02-18T06:59:09.307Z,40.80
2023-02-18T07:01:43.072Z,41.60
2023-02-18T07:04:16.444Z,36.30
2023-02-18T07:06:49.965Z,36.90
2023-02-18T07:09:23.964Z,37.00
2023-02-18T07:11:56.987Z,39.90
2023-02-18T07:14:30.797Z,33.30
2023-02-18T07:17:04.095Z,31.40
2023-02-18T07:19:37.192Z,28.30
2023-02-18T07:22:10.636Z,32.70
2023-02-18T07:24:44.309Z,42.80
2023-02-18T07:27:17.780Z,84.20
2023-02-18T07:29:51.356Z,48.60
2023-02-18T07:32:24.930Z,31.40
2023-02-18T07:34:58.605Z,39.50
2023-02-18T07:37:32.282Z,52.80
2023-02-18T07:40:05.790Z,39.10
2023-02-18T07:42:38.929Z,37.90
2023-02-18T07:45:13.180Z,40.10
2023-02-18T07:47:46.554Z,41.30
2023-02-18T07:50:19.962Z,42.00
2023-02-18T07:52:53.630Z,39.60
2023-02-18T07:55:47.516Z,48.00
2023-02-18T07:58:29.497Z,44.60
2023-02-18T08:01:06.217Z,36.60
2023-02-18T08:03:40.260Z,40.00
2023-02-18T08:06:25.381Z,40.70
2023-02-18T08:08:58.964Z,49.50
2023-02-18T08:11:32.267Z,41.70
2023-02-18T08:14:05.966Z,91.30
2023-02-18T08:16:39.703Z,61.00
2023-02-18T08:19:13.429Z,99.20
2023-02-18T08:21:47.126Z,62.70
2023-02-18T08:24:20.537Z,84.00
2023-02-18T08:27:00.864Z,62.60
2023-02-18T08:29:36.107Z,38.70
2023-02-18T08:32:09.495Z,35.30
2023-02-18T08:34:43.259Z,40.20
2023-02-18T08:37:17.040Z,46.70
2023-02-18T08:39:50.436Z,38.10
2023-02-18T08:42:24.271Z,41.90
2023-02-18T08:44:58.242Z,36.00
2023-02-18T08:48:17.201Z,38.30
2023-02-18T08:50:27.357Z,42.80
2023-02-18T08:53:04.158Z,39.50
2023-02-18T08:55:38.758Z,38.50
2023-02-18T08:58:12.542Z,33.30
2023-02-18T09:00:46.815Z,32.80
2023-02-18T09:03:20.419Z,30.50
2023-02-18T09:05:54.024Z,30.40
2023-02-18T09:08:28.003Z,18.80
2023-02-18T09:11:05.080Z,20.50
2023-02-18T09:13:38.581Z,27.80
2023-02-18T09:16:16.492Z,24.20
2023-02-18T09:18:50.411Z,26.00
2023-02-18T09:21:24.725Z,22.00
2023-02-18T09:23:58.100Z,19.60
2023-02-18T09:26:32.082Z,17.70
2023-02-18T09:29:05.385Z,16.10
2023-02-18T09:31:40.146Z,10.90
2023-02-18T09:34:14.010Z,8.00
2023-02-18T09:36:47.057Z,7.50
2023-02-18T09:39:20.834Z,7.20
2023-02-18T09:42:02.989Z,6.90
2023-02-18T09:44:41.477Z,5.60
2023-02-18T09:47:38.412Z,7.40
2023-02-18T09:50:22.902Z,7.30
2023-02-18T09:52:57.914Z,6.90
2023-02-18T09:55:43.043Z,7.10
2023-02-18T09:58:24.575Z,5.80
2023-02-18T10:01:14.293Z,6.40
2023-02-18T10:03:48.657Z,6.70
2023-02-18T10:06:40.513Z,6.20
2023-02-18T10:09:30.753Z,6.10
2023-02-18T10:12:23.753Z,5.80
2023-02-18T10:15:00.011Z,8.10
2023-02-18T10:17:35.402Z,6.50
2023-02-18T10:20:09.504Z,6.00
2023-02-18T10:22:43.164Z,6.80
2023-02-18T10:25:22.799Z,7.70
2023-02-18T10:27:56.234Z,6.20
2023-02-18T10:30:40.123Z,8.60
2023-02-18T10:33:35.526Z,19.20
2023-02-18T10:36:29.324Z,13.90
2023-02-18T10:39:36.452Z,8.60
2023-02-18T10:42:39.915Z,12.90
2023-02-18T10:45:31.230Z,20.20
2023-02-18T10:48:24.209Z,20.80
2023-02-18T10:51:00.908Z,24.50
2023-02-18T10:53:45.239Z,21.90
2023-02-18T10:56:42.228Z,16.40
2023-02-18T10:59:21.794Z,20.00
2023-02-18T11:02:20.190Z,12.40
2023-02-18T11:04:53.741Z,12.30
2023-02-18T11:07:35.199Z,10.90
2023-02-18T11:10:26.323Z,12.60
2023-02-18T11:13:25.711Z,13.10
2023-02-18T11:16:00.902Z,11.80
2023-02-18T11:18:52.347Z,7.10
2023-02-18T11:21:38.872Z,14.20
2023-02-18T11:24:18.976Z,19.90
2023-02-18T11:26:52.671Z,9.60
2023-02-18T11:29:30.881Z,10.90
2023-02-18T11:32:05.382Z,19.60
2023-02-18T11:34:39.126Z,8.40
2023-02-18T11:37:20.690Z,11.80
2023-02-18T11:40:17.583Z,14.50
2023-02-18T11:42:51.604Z,23.00
2023-02-18T11:45:36.462Z,19.50
2023-02-18T11:48:20.594Z,18.80
2023-02-18T11:51:05.273Z,13.90
2023-02-18T11:53:41.149Z,19.30
2023-02-18T11:56:23.808Z,19.40
2023-02-18T11:58:59.198Z,20.90
2023-02-18T12:01:35.026Z,15.40
2023-02-18T12:04:33.348Z,11.10
2023-02-18T12:07:15.126Z,12.30
2023-02-18T12:10:02.476Z,16.00
2023-02-18T12:13:00.352Z,14.10
2023-02-18T12:15:52.961Z,13.50
2023-02-18T12:18:55.446Z,13.00
2023-02-18T12:21:46.398Z,9.80
2023-02-18T12:24:28.228Z,6.30
2023-02-18T12:27:19.316Z,7.10
2023-02-18T12:30:01.151Z,8.70
2023-02-18T12:32:51.259Z,8.10
2023-02-18T12:36:03.039Z,6.90
2023-02-18T12:38:53.382Z,8.30
2023-02-18T12:41:55.429Z,5.60
2023-02-18T12:44:36.916Z,7.60
2023-02-18T12:47:27.246Z,5.70
2023-02-18T12:50:24.813Z,6.50
2023-02-18T12:53:31.624Z,7.90
2023-02-18T12:56:12.234Z,5.60
2023-02-18T12:58:47.885Z,6.10
2023-02-18T13:01:38.835Z,6.70
2023-02-18T13:04:42.045Z,9.10
2023-02-18T13:07:39.317Z,9.80
2023-02-18T13:10:21.560Z,6.60
2023-02-18T13:13:15.001Z,12.00
2023-02-18T13:15:59.844Z,10.30
2023-02-18T13:18:38.161Z,12.30
2023-02-18T13:21:14.968Z,13.20
2023-02-18T13:24:02.231Z,19.10
2023-02-18T13:26:36.072Z,20.90
2023-02-18T13:29:23.559Z,18.30
2023-02-18T13:32:14.859Z,19.10
2023-02-18T13:35:12.600Z,11.20
2023-02-18T13:38:00.856Z,11.30
2023-02-18T13:40:36.098Z,13.80
2023-02-18T13:43:32.084Z,8.80
2023-02-18T13:46:19.750Z,9.20
2023-02-18T13:49:04.475Z,9.90
2023-02-18T13:51:43.590Z,13.30
2023-02-18T13:54:30.699Z,12.60
2023-02-18T13:57:09.529Z,12.70
2023-02-18T13:59:58.939Z,14.10
2023-02-18T14:02:36.577Z,14.70
2023-02-18T14:05:12.150Z,11.80
2023-02-18T14:08:09.154Z,10.70
2023-02-18T14:10:42.962Z,13.20
2023-02-18T14:13:41.822Z,10.50
2023-02-18T14:16:15.369Z,9.70
2023-02-18T14:18:48.452Z,8.70
2023-02-18T14:21:25.628Z,8.80
2023-02-18T14:24:06.195Z,7.10
2023-02-18T14:26:51.456Z,11.20
2023-02-18T14:29:33.203Z,12.90
2023-02-18T14:32:16.252Z,16.10
2023-02-18T14:35:11.020Z,10.10
2023-02-18T14:37:59.258Z,9.70
2023-02-18T14:40:46.243Z,11.20
2023-02-18T14:43:47.182Z,8.10
2023-02-18T14:46:28.475Z,9.90
2023-02-18T14:49:33.243Z,9.00
2023-02-18T14:52:08.682Z,8.70
2023-02-18T14:54:44.996Z,11.10
2023-02-18T14:57:25.759Z,10.40
2023-02-18T15:00:02.760Z,8.60
2023-02-18T15:02:40.757Z,17.50
2023-02-18T15:05:31.386Z,17.90
2023-02-18T15:08:09.704Z,14.50
2023-02-18T15:10:46.035Z,9.60
2023-02-18T15:13:36.532Z,8.60
2023-02-18T15:16:18.262Z,14.60
2023-02-18T15:19:07.754Z,15.80
2023-02-18T15:21:48.557Z,14.20
2023-02-18T15:24:39.921Z,10.20
2023-02-18T15:27:30.565Z,9.70
2023-02-18T15:30:20.046Z,8.60
2023-02-18T15:32:56.145Z,12.90
2023-02-18T15:35:37.094Z,11.80
2023-02-18T15:38:22.551Z,10.20
2023-02-18T15:40:58.102Z,8.70
2023-02-18T15:43:32.731Z,10.70
2023-02-18T15:46:17.880Z,9.90
2023-02-18T15:48:55.850Z,14.20
2023-02-18T15:51:34.029Z,9.80
2023-02-18T15:54:08.217Z,9.60
2023-02-18T15:56:46.046Z,8.10
2023-02-18T15:59:24.862Z,9.40
2023-02-18T16:02:24.576Z,9.80
2023-02-18T16:05:05.567Z,9.20
2023-02-18T16:08:16.889Z,9.70
2023-02-18T16:10:56.850Z,9.20
2023-02-18T16:13:32.156Z,8.90
2023-02-18T16:16:05.232Z,11.90
2023-02-18T16:18:43.676Z,9.90
2023-02-18T16:21:22.493Z,10.00
2023-02-18T16:24:00.976Z,9.30
2023-02-18T16:26:46.478Z,9.50
2023-02-18T16:29:29.060Z,8.60
2023-02-18T16:32:02.750Z,9.20
2023-02-18T16:34:36.759Z,7.60
2023-02-18T16:37:29.954Z,8.90
2023-02-18T16:40:05.629Z,6.30
2023-02-18T16:42:38.652Z,8.00
2023-02-18T16:45:15.437Z,7.50
2023-02-18T16:47:50.681Z,8.90
2023-02-18T16:50:24.846Z,8.70
2023-02-18T16:52:58.060Z,10.40
2023-02-18T16:55:32.885Z,9.80
2023-02-18T16:58:06.268Z,10.60
2023-02-18T17:00:39.547Z,11.30
2023-02-18T17:03:14.307Z,10.10
2023-02-18T17:05:47.671Z,10.50
2023-02-18T17:08:25.669Z,14.20
2023-02-18T17:11:02.402Z,11.40
2023-02-18T17:13:35.653Z,13.50
2023-02-18T17:16:12.444Z,13.70
2023-02-18T17:18:46.297Z,15.80
2023-02-18T17:21:26.099Z,15.40
2023-02-18T17:23:59.538Z,17.20
2023-02-18T17:26:33.551Z,17.20
2023-02-18T17:29:09.865Z,11.90
2023-02-18T17:31:48.077Z,15.60
2023-02-18T17:34:36.647Z,15.40
2023-02-18T17:37:14.991Z,14.50
2023-02-18T17:39:48.357Z,13.80
2023-02-18T17:42:21.912Z,14.80
2023-02-18T17:44:55.508Z,14.80
2023-02-18T17:47:28.874Z,15.30
2023-02-18T17:50:06.301Z,15.70
2023-02-18T17:52:40.264Z,12.10
2023-02-18T17:55:33.272Z,11.30
2023-02-18T17:58:06.186Z,11.00
2023-02-18T18:00:42.785Z,17.90
2023-02-18T18:03:18.064Z,12.10
2023-02-18T18:05:55.053Z,19.70
2023-02-18T18:08:28.735Z,16.20
2023-02-18T18:11:03.444Z,13.90
2023-02-18T18:13:36.385Z,12.00
2023-02-18T18:16:12.133Z,13.90
2023-02-18T18:18:45.479Z,16.70
2023-02-18T18:21:26.217Z,12.60
2023-02-18T18:23:59.549Z,15.10
2023-02-18T18:26:33.560Z,16.10
2023-02-18T18:29:07.210Z,19.30
2023-02-18T18:31:40.912Z,16.00
2023-02-18T18:34:17.651Z,15.40
2023-02-18T18:36:50.693Z,22.90
2023-02-18T18:39:23.786Z,23.60
2023-02-18T18:41:56.926Z,23.80
2023-02-18T18:44:30.047Z,13.30
2023-02-18T18:47:03.230Z,15.50
2023-02-18T18:49:36.292Z,14.70
2023-02-18T18:52:12.691Z,13.80
2023-02-18T18:54:46.174Z,14.40
2023-02-18T18:57:19.528Z,16.90
2023-02-18T18:59:52.782Z,24.20
2023-02-18T19:02:26.173Z,18.00
2023-02-18T19:04:59.686Z,29.60
2023-02-18T19:07:32.849Z,13.90
2023-02-18T19:10:06.131Z,26.30
2023-02-18T19:12:39.574Z,25.20
2023-02-18T19:15:16.398Z,28.30
2023-02-18T19:17:56.860Z,23.60
2023-02-18T19:20:33.933Z,28.10
2023-02-18T19:23:07.843Z,30.60
2023-02-18T19:25:41.685Z,32.50
2023-02-18T19:28:19.409Z,30.70
2023-02-18T19:30:54.173Z,38.20
2023-02-18T19:33:27.065Z,33.70
2023-02-18T19:36:00.336Z,39.70
2023-02-18T19:38:33.546Z,40.30
2023-02-18T19:41:13.833Z,39.70
2023-02-18T19:43:53.356Z,38.40
2023-02-18T19:46:27.393Z,42.50
2023-02-18T19:49:00.669Z,43.20
2023-02-18T19:51:33.732Z,43.00
2023-02-18T19:54:06.848Z,42.20
2023-02-18T19:56:40.174Z,55.10
2023-02-18T19:59:13.295Z,43.10
2023-02-18T20:01:46.458Z,32.60
2023-02-18T20:04:22.938Z,33.20
2023-02-18T20:06:56.173Z,27.40
2023-02-18T20:09:29.143Z,26.50
2023-02-18T20:12:07.548Z,22.50
2023-02-18T20:14:44.456Z,23.10
2023-02-18T20:17:17.777Z,25.00
2023-02-18T20:19:50.712Z,22.00
2023-02-18T20:22:23.953Z,26.00
2023-02-18T20:24:56.845Z,23.60
2023-02-18T20:27:30.488Z,22.70
2023-02-18T20:30:04.163Z,23.10
2023-02-18T20:32:40.706Z,31.50
2023-02-18T20:35:14.220Z,33.30
2023-02-18T20:37:47.680Z,34.50
2023-02-18T20:40:21.195Z,39.80
2023-02-18T20:42:54.877Z,39.20
2023-02-18T20:45:28.241Z,39.90
2023-02-18T20:48:02.164Z,40.20
2023-02-18T20:50:35.618Z,42.40
2023-02-18T20:53:08.853Z,39.90
2023-02-18T20:55:48.436Z,36.40
2023-02-18T20:58:22.393Z,34.40
2023-02-18T21:01:06.516Z,29.70
2023-02-18T21:03:41.882Z,25.80
2023-02-18T21:06:17.571Z,28.10
2023-02-18T21:08:53.738Z,26.50
2023-02-18T21:11:29.432Z,26.30
2023-02-18T21:14:04.079Z,22.50
2023-02-18T21:16:40.608Z,20.60
2023-02-18T21:19:19.118Z,17.00
2023-02-18T21:21:53.380Z,15.00
2023-02-18T21:24:27.970Z,12.70
2023-02-18T21:27:01.598Z,12.50
2023-02-18T21:29:35.032Z,13.30
2023-02-18T21:32:08.688Z,13.30
2023-02-18T21:34:42.177Z,12.10
2023-02-18T21:37:15.732Z,12.30
2023-02-18T21:39:49.960Z,12.30
2023-02-18T21:42:23.165Z,12.00
2023-02-18T21:44:57.120Z,14.10
2023-02-18T21:47:30.651Z,12.40
2023-02-18T21:50:04.223Z,13.20
2023-02-18T21:52:37.676Z,13.10
2023-02-18T21:55:12.068Z,11.60
2023-02-18T21:57:45.772Z,11.30
2023-02-18T22:00:21.268Z,12.00
2023-02-18T22:02:54.611Z,11.40
2023-02-18T22:05:29.895Z,16.20
2023-02-18T22:08:03.158Z,17.30
2023-02-18T22:10:36.508Z,17.00
2023-02-18T22:13:09.632Z,18.00
2023-02-18T22:15:42.963Z,13.60
2023-02-18T22:18:16.179Z,15.60
2023-02-18T22:20:49.287Z,14.20
2023-02-18T22:23:22.865Z,15.00
2023-02-18T22:25:56.152Z,14.20
2023-02-18T22:28:29.282Z,12.20
2023-02-18T22:31:02.578Z,11.50
2023-02-18T22:33:35.883Z,11.60
2023-02-18T22:36:10.679Z,15.20
2023-02-18T22:38:43.626Z,13.70
2023-02-18T22:41:18.914Z,13.00
2023-02-18T22:43:56.529Z,12.60
2023-02-18T22:46:31.406Z,10.10
2023-02-18T22:49:05.016Z,12.00
2023-02-18T22:51:49.817Z,12.00
2023-02-18T22:54:23.719Z,20.80
2023-02-18T22:56:56.796Z,17.40
2023-02-18T22:59:30.116Z,18.20
2023-02-18T23:02:03.651Z,18.30
2023-02-18T23:04:37.161Z,15.10
2023-02-18T23:07:11.012Z,11.70
2023-02-18T23:09:44.697Z,11.60
2023-02-18T23:12:18.425Z,12.00
2023-02-18T23:14:51.755Z,12.10
2023-02-18T23:17:25.485Z,12.90
2023-02-18T23:20:00.050Z,10.20
2023-02-18T23:22:34.826Z,10.70
2023-02-18T23:25:08.962Z,11.60
2023-02-18T23:27:42.395Z,11.90
2023-02-18T23:30:15.832Z,13.20
2023-02-18T23:32:49.382Z,11.50
2023-02-18T23:35:22.985Z,13.30
2023-02-18T23:38:06.517Z,10.60
2023-02-18T23:40:40.090Z,9.90
2023-02-18T23:43:13.910Z,9.80
2023-02-18T23:45:47.929Z,8.40
2023-02-18T23:48:21.947Z,8.50
2023-02-18T23:51:04.557Z,8.70
2023-02-18T23:53:39.220Z,10.00
2023-02-18T23:56:24.812Z,9.20
2023-02-18T23:59:01.077Z,10.00
